sensor_id;sensor_type;location;lat;lon;timestamp;P1;durP1;ratioP1;P2;durP2;ratioP2
35056;SDS011;21241;51.828;19.574;2022-12-18T00:01:47;64.50;;;47.20;;
35056;SDS011;21241;51.828;19.574;2022-12-18T00:04:18;67.80;;;46.50;;
35056;SDS011;21241;51.828;19.574;2022-12-18T00:06:49;62.70;;;44.60;;
35056;SDS011;21241;51.828;19.574;2022-12-18T00:09:17;61.70;;;45.90;;
35056;SDS011;21241;51.828;19.574;2022-12-18T00:11:45;62.40;;;45.80;;
35056;SDS011;21241;51.828;19.574;2022-12-18T00:14:13;61.20;;;43.20;;
35056;SDS011;21241;51.828;19.574;2022-12-18T00:16:45;60.50;;;42.60;;
35056;SDS011;21241;51.828;19.574;2022-12-18T00:19:13;65.60;;;43.80;;
35056;SDS011;21241;51.828;19.574;2022-12-18T00:21:42;61.40;;;43.20;;
35056;SDS011;21241;51.828;19.574;2022-12-18T00:24:11;63.00;;;44.90;;
35056;SDS011;21241;51.828;19.574;2022-12-18T00:26:39;64.90;;;44.30;;
35056;SDS011;21241;51.828;19.574;2022-12-18T00:29:09;69.90;;;48.30;;
35056;SDS011;21241;51.828;19.574;2022-12-18T00:31:38;67.30;;;45.00;;
35056;SDS011;21241;51.828;19.574;2022-12-18T00:34:05;64.40;;;44.50;;
35056;SDS011;21241;51.828;19.574;2022-12-18T00:36:34;59.90;;;43.40;;
35056;SDS011;21241;51.828;19.574;2022-12-18T00:39:03;61.50;;;42.80;;
35056;SDS011;21241;51.828;19.574;2022-12-18T00:41:31;60.70;;;43.80;;
35056;SDS011;21241;51.828;19.574;2022-12-18T00:44:18;62.80;;;43.90;;
35056;SDS011;21241;51.828;19.574;2022-12-18T00:46:46;65.20;;;44.60;;
35056;SDS011;21241;51.828;19.574;2022-12-18T00:49:16;59.60;;;43.30;;
35056;SDS011;21241;51.828;19.574;2022-12-18T00:51:46;61.00;;;42.20;;
35056;SDS011;21241;51.828;19.574;2022-12-18T00:54:14;65.80;;;44.80;;
35056;SDS011;21241;51.828;19.574;2022-12-18T00:56:42;62.20;;;44.80;;
35056;SDS011;21241;51.828;19.574;2022-12-18T00:59:17;59.10;;;41.50;;
35056;SDS011;21241;51.828;19.574;2022-12-18T01:01:46;61.00;;;42.70;;
35056;SDS011;21241;51.828;19.574;2022-12-18T01:04:14;62.40;;;43.10;;
35056;SDS011;21241;51.828;19.574;2022-12-18T01:06:45;65.60;;;44.20;;
35056;SDS011;21241;51.828;19.574;2022-12-18T01:09:13;61.60;;;42.10;;
35056;SDS011;21241;51.828;19.574;2022-12-18T01:11:40;63.20;;;43.70;;
35056;SDS011;21241;51.828;19.574;2022-12-18T01:14:09;60.50;;;42.10;;
35056;SDS011;21241;51.828;19.574;2022-12-18T01:16:37;63.30;;;44.40;;
35056;SDS011;21241;51.828;19.574;2022-12-18T01:19:05;59.50;;;42.80;;
35056;SDS011;21241;51.828;19.574;2022-12-18T01:21:33;56.00;;;40.40;;
35056;SDS011;21241;51.828;19.574;2022-12-18T01:24:04;56.30;;;41.80;;
35056;SDS011;21241;51.828;19.574;2022-12-18T01:26:32;59.00;;;40.80;;
35056;SDS011;21241;51.828;19.574;2022-12-18T01:29:00;52.80;;;38.70;;
35056;SDS011;21241;51.828;19.574;2022-12-18T01:31:30;59.20;;;41.80;;
35056;SDS011;21241;51.828;19.574;2022-12-18T01:34:02;56.00;;;40.70;;
35056;SDS011;21241;51.828;19.574;2022-12-18T01:36:32;54.60;;;41.10;;
35056;SDS011;21241;51.828;19.574;2022-12-18T01:39:06;56.40;;;40.30;;
35056;SDS011;21241;51.828;19.574;2022-12-18T01:41:36;54.20;;;40.40;;
35056;SDS011;21241;51.828;19.574;2022-12-18T01:50:23;54.40;;;38.20;;
35056;SDS011;21241;51.828;19.574;2022-12-18T01:53:03;53.80;;;39.20;;
35056;SDS011;21241;51.828;19.574;2022-12-18T01:55:43;55.30;;;39.40;;
35056;SDS011;21241;51.828;19.574;2022-12-18T01:58:12;55.20;;;40.50;;
35056;SDS011;21241;51.828;19.574;2022-12-18T02:00:41;54.30;;;40.80;;
35056;SDS011;21241;51.828;19.574;2022-12-18T02:03:09;56.00;;;40.50;;
35056;SDS011;21241;51.828;19.574;2022-12-18T02:05:44;54.80;;;39.60;;
35056;SDS011;21241;51.828;19.574;2022-12-18T02:08:20;55.50;;;40.10;;
35056;SDS011;21241;51.828;19.574;2022-12-18T02:13:46;54.40;;;38.50;;
35056;SDS011;21241;51.828;19.574;2022-12-18T02:28:02;54.20;;;39.50;;
35056;SDS011;21241;51.828;19.574;2022-12-18T02:30:32;56.10;;;40.00;;
35056;SDS011;21241;51.828;19.574;2022-12-18T02:33:01;56.00;;;38.70;;
35056;SDS011;21241;51.828;19.574;2022-12-18T02:35:33;54.40;;;41.30;;
35056;SDS011;21241;51.828;19.574;2022-12-18T02:38:03;54.50;;;39.90;;
35056;SDS011;21241;51.828;19.574;2022-12-18T02:40:33;54.00;;;40.70;;
35056;SDS011;21241;51.828;19.574;2022-12-18T02:43:06;57.70;;;40.60;;
35056;SDS011;21241;51.828;19.574;2022-12-18T02:45:50;53.60;;;40.10;;
35056;SDS011;21241;51.828;19.574;2022-12-18T02:48:22;53.80;;;38.60;;
35056;SDS011;21241;51.828;19.574;2022-12-18T02:51:04;53.20;;;39.10;;
35056;SDS011;21241;51.828;19.574;2022-12-18T02:53:49;53.20;;;40.30;;
35056;SDS011;21241;51.828;19.574;2022-12-18T02:56:21;56.00;;;41.70;;
35056;SDS011;21241;51.828;19.574;2022-12-18T02:59:12;51.10;;;38.90;;
35056;SDS011;21241;51.828;19.574;2022-12-18T03:01:52;53.10;;;38.30;;
35056;SDS011;21241;51.828;19.574;2022-12-18T03:05:15;49.40;;;37.10;;
35056;SDS011;21241;51.828;19.574;2022-12-18T03:07:34;51.60;;;40.00;;
35056;SDS011;21241;51.828;19.574;2022-12-18T03:10:07;51.80;;;39.40;;
35056;SDS011;21241;51.828;19.574;2022-12-18T03:12:42;53.50;;;38.90;;
35056;SDS011;21241;51.828;19.574;2022-12-18T03:15:19;54.00;;;40.90;;
35056;SDS011;21241;51.828;19.574;2022-12-18T03:17:56;54.40;;;39.70;;
35056;SDS011;21241;51.828;19.574;2022-12-18T03:20:30;55.60;;;40.30;;
35056;SDS011;21241;51.828;19.574;2022-12-18T03:23:09;57.30;;;41.70;;
35056;SDS011;21241;51.828;19.574;2022-12-18T03:25:39;55.00;;;39.60;;
35056;SDS011;21241;51.828;19.574;2022-12-18T03:28:09;55.10;;;40.30;;
35056;SDS011;21241;51.828;19.574;2022-12-18T03:30:41;52.90;;;40.20;;
35056;SDS011;21241;51.828;19.574;2022-12-18T03:36:14;53.40;;;39.70;;
35056;SDS011;21241;51.828;19.574;2022-12-18T03:38:42;53.50;;;40.60;;
35056;SDS011;21241;51.828;19.574;2022-12-18T03:41:16;54.70;;;39.60;;
35056;SDS011;21241;51.828;19.574;2022-12-18T03:44:13;51.70;;;39.30;;
35056;SDS011;21241;51.828;19.574;2022-12-18T03:49:56;54.50;;;39.30;;
35056;SDS011;21241;51.828;19.574;2022-12-18T03:52:39;52.80;;;38.90;;
35056;SDS011;21241;51.828;19.574;2022-12-18T03:55:20;51.90;;;39.00;;
35056;SDS011;21241;51.828;19.574;2022-12-18T03:57:53;53.40;;;40.00;;
35056;SDS011;21241;51.828;19.574;2022-12-18T04:00:21;55.10;;;40.80;;
35056;SDS011;21241;51.828;19.574;2022-12-18T04:02:55;55.10;;;40.30;;
35056;SDS011;21241;51.828;19.574;2022-12-18T04:05:31;53.20;;;39.70;;
35056;SDS011;21241;51.828;19.574;2022-12-18T04:08:01;50.90;;;38.00;;
35056;SDS011;21241;51.828;19.574;2022-12-18T04:10:30;54.70;;;40.30;;
35056;SDS011;21241;51.828;19.574;2022-12-18T04:12:58;51.80;;;40.60;;
35056;SDS011;21241;51.828;19.574;2022-12-18T04:15:27;52.80;;;39.10;;
35056;SDS011;21241;51.828;19.574;2022-12-18T04:17:55;53.20;;;40.80;;
35056;SDS011;21241;51.828;19.574;2022-12-18T04:20:24;56.80;;;41.60;;
35056;SDS011;21241;51.828;19.574;2022-12-18T04:22:52;53.80;;;41.20;;
35056;SDS011;21241;51.828;19.574;2022-12-18T04:25:20;54.30;;;42.40;;
35056;SDS011;21241;51.828;19.574;2022-12-18T04:28:04;55.30;;;41.20;;
35056;SDS011;21241;51.828;19.574;2022-12-18T04:30:33;53.20;;;40.00;;
35056;SDS011;21241;51.828;19.574;2022-12-18T04:33:01;55.20;;;42.00;;
35056;SDS011;21241;51.828;19.574;2022-12-18T04:35:30;55.00;;;40.70;;
35056;SDS011;21241;51.828;19.574;2022-12-18T04:37:58;56.30;;;41.30;;
35056;SDS011;21241;51.828;19.574;2022-12-18T04:40:27;57.20;;;43.00;;
35056;SDS011;21241;51.828;19.574;2022-12-18T04:42:55;58.30;;;42.40;;
35056;SDS011;21241;51.828;19.574;2022-12-18T04:45:22;56.00;;;43.50;;
35056;SDS011;21241;51.828;19.574;2022-12-18T04:47:50;57.90;;;43.70;;
35056;SDS011;21241;51.828;19.574;2022-12-18T04:50:18;58.50;;;42.70;;
35056;SDS011;21241;51.828;19.574;2022-12-18T04:52:45;59.90;;;43.30;;
35056;SDS011;21241;51.828;19.574;2022-12-18T04:55:13;60.90;;;43.10;;
35056;SDS011;21241;51.828;19.574;2022-12-18T04:57:41;58.60;;;43.50;;
35056;SDS011;21241;51.828;19.574;2022-12-18T05:00:09;59.80;;;44.40;;
35056;SDS011;21241;51.828;19.574;2022-12-18T05:02:37;60.10;;;44.70;;
35056;SDS011;21241;51.828;19.574;2022-12-18T05:05:05;61.90;;;45.60;;
35056;SDS011;21241;51.828;19.574;2022-12-18T05:07:35;61.70;;;45.40;;
35056;SDS011;21241;51.828;19.574;2022-12-18T05:10:03;61.30;;;44.10;;
35056;SDS011;21241;51.828;19.574;2022-12-18T05:12:32;59.00;;;43.00;;
35056;SDS011;21241;51.828;19.574;2022-12-18T05:15:00;56.10;;;44.00;;
35056;SDS011;21241;51.828;19.574;2022-12-18T05:17:27;56.90;;;42.60;;
35056;SDS011;21241;51.828;19.574;2022-12-18T05:19:55;57.80;;;43.70;;
35056;SDS011;21241;51.828;19.574;2022-12-18T05:22:23;56.10;;;42.80;;
35056;SDS011;21241;51.828;19.574;2022-12-18T05:24:50;58.90;;;44.60;;
35056;SDS011;21241;51.828;19.574;2022-12-18T05:27:18;57.20;;;43.50;;
35056;SDS011;21241;51.828;19.574;2022-12-18T05:29:48;56.50;;;42.60;;
35056;SDS011;21241;51.828;19.574;2022-12-18T05:32:15;60.80;;;44.30;;
35056;SDS011;21241;51.828;19.574;2022-12-18T05:34:43;57.60;;;43.00;;
35056;SDS011;21241;51.828;19.574;2022-12-18T05:37:10;59.20;;;44.20;;
35056;SDS011;21241;51.828;19.574;2022-12-18T05:39:38;55.30;;;43.90;;
35056;SDS011;21241;51.828;19.574;2022-12-18T05:42:06;65.20;;;48.20;;
35056;SDS011;21241;51.828;19.574;2022-12-18T05:44:33;63.80;;;48.20;;
35056;SDS011;21241;51.828;19.574;2022-12-18T05:47:01;62.30;;;47.60;;
35056;SDS011;21241;51.828;19.574;2022-12-18T05:49:29;64.40;;;50.30;;
35056;SDS011;21241;51.828;19.574;2022-12-18T05:51:56;61.40;;;47.90;;
35056;SDS011;21241;51.828;19.574;2022-12-18T05:54:26;62.30;;;46.80;;
35056;SDS011;21241;51.828;19.574;2022-12-18T05:56:55;67.90;;;51.50;;
35056;SDS011;21241;51.828;19.574;2022-12-18T05:59:23;64.20;;;49.00;;
35056;SDS011;21241;51.828;19.574;2022-12-18T06:01:51;67.30;;;49.60;;
35056;SDS011;21241;51.828;19.574;2022-12-18T06:04:19;68.20;;;49.20;;
35056;SDS011;21241;51.828;19.574;2022-12-18T06:06:46;70.20;;;51.50;;
35056;SDS011;21241;51.828;19.574;2022-12-18T06:09:14;71.80;;;51.50;;
35056;SDS011;21241;51.828;19.574;2022-12-18T06:11:42;73.30;;;54.80;;
35056;SDS011;21241;51.828;19.574;2022-12-18T06:14:09;79.10;;;55.20;;
35056;SDS011;21241;51.828;19.574;2022-12-18T06:16:37;71.30;;;51.20;;
35056;SDS011;21241;51.828;19.574;2022-12-18T06:19:05;71.80;;;52.10;;
35056;SDS011;21241;51.828;19.574;2022-12-18T06:21:33;73.00;;;54.00;;
35056;SDS011;21241;51.828;19.574;2022-12-18T06:24:02;78.30;;;57.80;;
35056;SDS011;21241;51.828;19.574;2022-12-18T06:26:30;75.20;;;54.20;;
35056;SDS011;21241;51.828;19.574;2022-12-18T06:28:58;79.90;;;55.20;;
35056;SDS011;21241;51.828;19.574;2022-12-18T06:31:25;80.00;;;56.70;;
35056;SDS011;21241;51.828;19.574;2022-12-18T06:33:53;84.40;;;58.10;;
35056;SDS011;21241;51.828;19.574;2022-12-18T06:36:21;85.20;;;63.70;;
35056;SDS011;21241;51.828;19.574;2022-12-18T06:38:49;109.40;;;90.50;;
35056;SDS011;21241;51.828;19.574;2022-12-18T06:41:17;81.30;;;58.50;;
35056;SDS011;21241;51.828;19.574;2022-12-18T06:43:46;84.80;;;59.20;;
35056;SDS011;21241;51.828;19.574;2022-12-18T06:46:14;86.00;;;59.70;;
35056;SDS011;21241;51.828;19.574;2022-12-18T06:48:42;83.60;;;58.20;;
35056;SDS011;21241;51.828;19.574;2022-12-18T06:51:10;83.00;;;57.10;;
35056;SDS011;21241;51.828;19.574;2022-12-18T06:53:37;86.30;;;60.70;;
35056;SDS011;21241;51.828;19.574;2022-12-18T06:56:06;85.10;;;59.80;;
35056;SDS011;21241;51.828;19.574;2022-12-18T06:58:37;87.90;;;60.20;;
35056;SDS011;21241;51.828;19.574;2022-12-18T07:01:07;84.30;;;59.60;;
35056;SDS011;21241;51.828;19.574;2022-12-18T07:03:37;84.80;;;59.80;;
35056;SDS011;21241;51.828;19.574;2022-12-18T07:06:11;87.80;;;61.50;;
35056;SDS011;21241;51.828;19.574;2022-12-18T07:08:44;90.10;;;61.30;;
35056;SDS011;21241;51.828;19.574;2022-12-18T07:11:12;85.60;;;60.80;;
35056;SDS011;21241;51.828;19.574;2022-12-18T07:13:40;86.20;;;59.50;;
35056;SDS011;21241;51.828;19.574;2022-12-18T07:16:14;89.00;;;59.90;;
35056;SDS011;21241;51.828;19.574;2022-12-18T07:18:52;90.70;;;62.60;;
35056;SDS011;21241;51.828;19.574;2022-12-18T07:21:21;92.80;;;62.20;;
35056;SDS011;21241;51.828;19.574;2022-12-18T07:23:50;93.40;;;65.70;;
35056;SDS011;21241;51.828;19.574;2022-12-18T07:26:18;89.50;;;61.10;;
35056;SDS011;21241;51.828;19.574;2022-12-18T07:28:47;93.80;;;63.70;;
35056;SDS011;21241;51.828;19.574;2022-12-18T07:31:19;89.50;;;61.60;;
35056;SDS011;21241;51.828;19.574;2022-12-18T07:33:49;92.20;;;61.70;;
35056;SDS011;21241;51.828;19.574;2022-12-18T07:36:18;99.00;;;68.70;;
35056;SDS011;21241;51.828;19.574;2022-12-18T07:38:49;90.40;;;61.50;;
35056;SDS011;21241;51.828;19.574;2022-12-18T07:41:17;89.80;;;60.60;;
35056;SDS011;21241;51.828;19.574;2022-12-18T07:43:46;88.30;;;60.10;;
35056;SDS011;21241;51.828;19.574;2022-12-18T07:46:14;84.20;;;57.70;;
35056;SDS011;21241;51.828;19.574;2022-12-18T07:48:43;83.90;;;56.00;;
35056;SDS011;21241;51.828;19.574;2022-12-18T07:51:17;87.10;;;60.00;;
35056;SDS011;21241;51.828;19.574;2022-12-18T07:53:45;82.40;;;56.50;;
35056;SDS011;21241;51.828;19.574;2022-12-18T07:56:19;80.20;;;53.90;;
35056;SDS011;21241;51.828;19.574;2022-12-18T07:58:57;82.50;;;56.00;;
35056;SDS011;21241;51.828;19.574;2022-12-18T08:01:26;87.00;;;58.50;;
35056;SDS011;21241;51.828;19.574;2022-12-18T08:03:54;90.20;;;58.50;;
35056;SDS011;21241;51.828;19.574;2022-12-18T08:06:22;88.80;;;60.40;;
35056;SDS011;21241;51.828;19.574;2022-12-18T08:08:52;88.30;;;59.10;;
35056;SDS011;21241;51.828;19.574;2022-12-18T08:11:20;87.70;;;59.40;;
35056;SDS011;21241;51.828;19.574;2022-12-18T08:13:48;87.70;;;58.40;;
35056;SDS011;21241;51.828;19.574;2022-12-18T08:16:16;88.90;;;59.00;;
35056;SDS011;21241;51.828;19.574;2022-12-18T08:18:45;88.90;;;58.60;;
35056;SDS011;21241;51.828;19.574;2022-12-18T08:21:20;85.10;;;61.30;;
35056;SDS011;21241;51.828;19.574;2022-12-18T08:23:52;82.30;;;56.70;;
35056;SDS011;21241;51.828;19.574;2022-12-18T08:26:21;83.30;;;57.10;;
35056;SDS011;21241;51.828;19.574;2022-12-18T08:28:50;80.90;;;57.20;;
35056;SDS011;21241;51.828;19.574;2022-12-18T08:31:18;82.40;;;59.60;;
35056;SDS011;21241;51.828;19.574;2022-12-18T08:33:50;86.70;;;58.80;;
35056;SDS011;21241;51.828;19.574;2022-12-18T08:36:20;85.40;;;57.60;;
35056;SDS011;21241;51.828;19.574;2022-12-18T08:38:48;89.10;;;60.60;;
35056;SDS011;21241;51.828;19.574;2022-12-18T08:41:17;90.30;;;60.10;;
35056;SDS011;21241;51.828;19.574;2022-12-18T08:43:45;83.20;;;57.80;;
35056;SDS011;21241;51.828;19.574;2022-12-18T08:46:34;81.40;;;55.90;;
35056;SDS011;21241;51.828;19.574;2022-12-18T08:49:06;83.10;;;57.10;;
35056;SDS011;21241;51.828;19.574;2022-12-18T08:51:35;80.00;;;57.70;;
35056;SDS011;21241;51.828;19.574;2022-12-18T08:54:03;77.30;;;54.70;;
35056;SDS011;21241;51.828;19.574;2022-12-18T08:56:33;75.50;;;53.80;;
35056;SDS011;21241;51.828;19.574;2022-12-18T08:59:01;75.80;;;52.70;;
35056;SDS011;21241;51.828;19.574;2022-12-18T09:01:30;77.70;;;55.30;;
35056;SDS011;21241;51.828;19.574;2022-12-18T09:04:01;81.30;;;57.50;;
35056;SDS011;21241;51.828;19.574;2022-12-18T09:06:29;78.50;;;57.80;;
35056;SDS011;21241;51.828;19.574;2022-12-18T09:08:57;80.50;;;56.00;;
35056;SDS011;21241;51.828;19.574;2022-12-18T09:11:25;86.10;;;60.40;;
35056;SDS011;21241;51.828;19.574;2022-12-18T09:13:55;79.20;;;56.40;;
35056;SDS011;21241;51.828;19.574;2022-12-18T09:16:23;78.50;;;56.50;;
35056;SDS011;21241;51.828;19.574;2022-12-18T09:18:59;82.30;;;57.30;;
35056;SDS011;21241;51.828;19.574;2022-12-18T09:21:28;81.50;;;56.40;;
35056;SDS011;21241;51.828;19.574;2022-12-18T09:23:59;76.00;;;54.00;;
35056;SDS011;21241;51.828;19.574;2022-12-18T09:26:27;78.00;;;56.40;;
35056;SDS011;21241;51.828;19.574;2022-12-18T09:28:55;82.00;;;57.90;;
35056;SDS011;21241;51.828;19.574;2022-12-18T09:31:24;81.30;;;57.20;;
35056;SDS011;21241;51.828;19.574;2022-12-18T09:33:52;77.70;;;57.70;;
35056;SDS011;21241;51.828;19.574;2022-12-18T09:36:19;77.10;;;57.40;;
35056;SDS011;21241;51.828;19.574;2022-12-18T09:38:48;81.80;;;57.20;;
35056;SDS011;21241;51.828;19.574;2022-12-18T09:44:03;83.60;;;56.20;;
35056;SDS011;21241;51.828;19.574;2022-12-18T09:46:38;79.90;;;57.80;;
35056;SDS011;21241;51.828;19.574;2022-12-18T09:49:14;87.00;;;61.20;;
35056;SDS011;21241;51.828;19.574;2022-12-18T09:51:52;92.40;;;62.30;;
35056;SDS011;21241;51.828;19.574;2022-12-18T09:54:30;81.20;;;59.10;;
35056;SDS011;21241;51.828;19.574;2022-12-18T09:57:01;89.30;;;61.40;;
35056;SDS011;21241;51.828;19.574;2022-12-18T09:59:34;88.00;;;63.60;;
35056;SDS011;21241;51.828;19.574;2022-12-18T10:02:20;101.00;;;75.60;;
35056;SDS011;21241;51.828;19.574;2022-12-18T10:05:12;92.10;;;65.60;;
35056;SDS011;21241;51.828;19.574;2022-12-18T10:10:41;89.80;;;62.60;;
35056;SDS011;21241;51.828;19.574;2022-12-18T10:13:15;87.60;;;60.60;;
35056;SDS011;21241;51.828;19.574;2022-12-18T10:18:50;80.70;;;58.50;;
35056;SDS011;21241;51.828;19.574;2022-12-18T10:21:32;81.30;;;59.90;;
35056;SDS011;21241;51.828;19.574;2022-12-18T10:24:15;77.10;;;57.00;;
35056;SDS011;21241;51.828;19.574;2022-12-18T10:26:48;74.40;;;55.30;;
35056;SDS011;21241;51.828;19.574;2022-12-18T10:29:16;81.90;;;61.50;;
35056;SDS011;21241;51.828;19.574;2022-12-18T10:31:44;72.60;;;56.20;;
35056;SDS011;21241;51.828;19.574;2022-12-18T10:34:12;83.60;;;60.70;;
35056;SDS011;21241;51.828;19.574;2022-12-18T10:36:40;76.60;;;54.70;;
35056;SDS011;21241;51.828;19.574;2022-12-18T10:39:42;82.40;;;59.10;;
35056;SDS011;21241;51.828;19.574;2022-12-18T10:42:15;78.20;;;57.90;;
35056;SDS011;21241;51.828;19.574;2022-12-18T10:44:45;82.20;;;58.10;;
35056;SDS011;21241;51.828;19.574;2022-12-18T10:47:17;79.40;;;56.20;;
35056;SDS011;21241;51.828;19.574;2022-12-18T10:49:47;79.70;;;56.20;;
35056;SDS011;21241;51.828;19.574;2022-12-18T10:54:59;80.50;;;56.20;;
35056;SDS011;21241;51.828;19.574;2022-12-18T10:57:32;79.30;;;54.40;;
35056;SDS011;21241;51.828;19.574;2022-12-18T11:00:25;82.90;;;57.20;;
35056;SDS011;21241;51.828;19.574;2022-12-18T11:02:54;87.50;;;58.30;;
35056;SDS011;21241;51.828;19.574;2022-12-18T11:05:25;88.60;;;63.80;;
35056;SDS011;21241;51.828;19.574;2022-12-18T11:07:55;88.90;;;58.60;;
35056;SDS011;21241;51.828;19.574;2022-12-18T11:10:33;85.90;;;59.60;;
35056;SDS011;21241;51.828;19.574;2022-12-18T11:13:23;88.30;;;64.70;;
35056;SDS011;21241;51.828;19.574;2022-12-18T11:15:52;95.80;;;61.00;;
35056;SDS011;21241;51.828;19.574;2022-12-18T11:18:25;92.70;;;62.80;;
35056;SDS011;21241;51.828;19.574;2022-12-18T11:21:08;126.80;;;85.30;;
35056;SDS011;21241;51.828;19.574;2022-12-18T11:23:37;110.80;;;80.80;;
35056;SDS011;21241;51.828;19.574;2022-12-18T11:26:13;106.20;;;75.60;;
35056;SDS011;21241;51.828;19.574;2022-12-18T11:28:43;103.70;;;70.60;;
35056;SDS011;21241;51.828;19.574;2022-12-18T11:36:58;85.10;;;57.10;;
35056;SDS011;21241;51.828;19.574;2022-12-18T11:39:32;88.10;;;59.00;;
35056;SDS011;21241;51.828;19.574;2022-12-18T11:44:52;80.60;;;56.60;;
35056;SDS011;21241;51.828;19.574;2022-12-18T11:47:28;83.20;;;57.20;;
35056;SDS011;21241;51.828;19.574;2022-12-18T11:50:02;76.00;;;53.50;;
35056;SDS011;21241;51.828;19.574;2022-12-18T11:52:45;82.30;;;55.20;;
35056;SDS011;21241;51.828;19.574;2022-12-18T11:55:24;78.80;;;54.40;;
35056;SDS011;21241;51.828;19.574;2022-12-18T11:58:23;78.40;;;54.20;;
35056;SDS011;21241;51.828;19.574;2022-12-18T12:03:56;79.50;;;53.80;;
35056;SDS011;21241;51.828;19.574;2022-12-18T12:17:38;74.20;;;50.60;;
35056;SDS011;21241;51.828;19.574;2022-12-18T12:20:19;73.30;;;50.00;;
35056;SDS011;21241;51.828;19.574;2022-12-18T12:23:01;77.70;;;56.20;;
35056;SDS011;21241;51.828;19.574;2022-12-18T12:25:40;79.20;;;59.40;;
35056;SDS011;21241;51.828;19.574;2022-12-18T12:30:58;68.40;;;49.80;;
35056;SDS011;21241;51.828;19.574;2022-12-18T12:33:42;74.90;;;52.80;;
35056;SDS011;21241;51.828;19.574;2022-12-18T12:36:19;75.30;;;53.00;;
35056;SDS011;21241;51.828;19.574;2022-12-18T12:38:57;84.00;;;59.70;;
35056;SDS011;21241;51.828;19.574;2022-12-18T12:41:28;84.30;;;62.30;;
35056;SDS011;21241;51.828;19.574;2022-12-18T12:44:20;84.10;;;58.80;;
35056;SDS011;21241;51.828;19.574;2022-12-18T12:46:52;86.80;;;59.70;;
35056;SDS011;21241;51.828;19.574;2022-12-18T12:49:24;85.10;;;61.00;;
35056;SDS011;21241;51.828;19.574;2022-12-18T12:51:58;87.60;;;60.40;;
35056;SDS011;21241;51.828;19.574;2022-12-18T12:54:31;88.60;;;61.60;;
35056;SDS011;21241;51.828;19.574;2022-12-18T13:00:05;88.90;;;61.90;;
35056;SDS011;21241;51.828;19.574;2022-12-18T13:02:46;92.70;;;64.50;;
35056;SDS011;21241;51.828;19.574;2022-12-18T13:08:27;98.50;;;65.80;;
35056;SDS011;21241;51.828;19.574;2022-12-18T13:10:59;98.00;;;67.10;;
35056;SDS011;21241;51.828;19.574;2022-12-18T13:13:52;103.40;;;70.20;;
35056;SDS011;21241;51.828;19.574;2022-12-18T13:16:23;99.10;;;68.90;;
35056;SDS011;21241;51.828;19.574;2022-12-18T13:18:55;108.30;;;75.10;;
35056;SDS011;21241;51.828;19.574;2022-12-18T13:21:29;111.40;;;77.00;;
35056;SDS011;21241;51.828;19.574;2022-12-18T13:26:55;105.50;;;70.60;;
35056;SDS011;21241;51.828;19.574;2022-12-18T13:29:43;105.60;;;71.10;;
35056;SDS011;21241;51.828;19.574;2022-12-18T13:32:23;106.60;;;73.00;;
35056;SDS011;21241;51.828;19.574;2022-12-18T13:35:37;104.60;;;71.70;;
35056;SDS011;21241;51.828;19.574;2022-12-18T13:37:54;99.80;;;67.90;;
35056;SDS011;21241;51.828;19.574;2022-12-18T13:45:49;98.20;;;67.00;;
35056;SDS011;21241;51.828;19.574;2022-12-18T13:48:29;88.10;;;63.10;;
35056;SDS011;21241;51.828;19.574;2022-12-18T13:51:06;90.20;;;64.30;;
35056;SDS011;21241;51.828;19.574;2022-12-18T13:53:44;93.90;;;64.10;;
35056;SDS011;21241;51.828;19.574;2022-12-18T13:56:20;90.60;;;63.20;;
35056;SDS011;21241;51.828;19.574;2022-12-18T13:59:04;88.40;;;62.30;;
35056;SDS011;21241;51.828;19.574;2022-12-18T14:01:46;91.30;;;62.00;;
35056;SDS011;21241;51.828;19.574;2022-12-18T14:04:24;93.30;;;62.90;;
35056;SDS011;21241;51.828;19.574;2022-12-18T14:07:03;100.50;;;66.40;;
35056;SDS011;21241;51.828;19.574;2022-12-18T14:09:37;104.60;;;73.10;;
35056;SDS011;21241;51.828;19.574;2022-12-18T14:12:17;170.10;;;138.90;;
35056;SDS011;21241;51.828;19.574;2022-12-18T14:18:08;100.10;;;65.80;;
35056;SDS011;21241;51.828;19.574;2022-12-18T14:20:41;110.60;;;74.60;;
35056;SDS011;21241;51.828;19.574;2022-12-18T14:25:59;85.00;;;58.90;;
35056;SDS011;21241;51.828;19.574;2022-12-18T14:28:32;82.20;;;56.70;;
35056;SDS011;21241;51.828;19.574;2022-12-18T14:31:00;79.90;;;53.70;;
35056;SDS011;21241;51.828;19.574;2022-12-18T14:33:28;83.60;;;58.40;;
35056;SDS011;21241;51.828;19.574;2022-12-18T14:35:57;77.20;;;52.10;;
35056;SDS011;21241;51.828;19.574;2022-12-18T14:38:29;77.30;;;51.20;;
35056;SDS011;21241;51.828;19.574;2022-12-18T14:41:00;90.30;;;61.80;;
35056;SDS011;21241;51.828;19.574;2022-12-18T14:43:33;90.80;;;55.70;;
35056;SDS011;21241;51.828;19.574;2022-12-18T14:46:03;96.50;;;63.10;;
35056;SDS011;21241;51.828;19.574;2022-12-18T14:48:50;87.40;;;55.40;;
35056;SDS011;21241;51.828;19.574;2022-12-18T14:51:19;89.20;;;57.20;;
35056;SDS011;21241;51.828;19.574;2022-12-18T14:53:51;84.70;;;54.50;;
35056;SDS011;21241;51.828;19.574;2022-12-18T14:56:22;87.30;;;57.20;;
35056;SDS011;21241;51.828;19.574;2022-12-18T14:59:02;81.50;;;52.50;;
35056;SDS011;21241;51.828;19.574;2022-12-18T15:01:34;83.30;;;55.50;;
35056;SDS011;21241;51.828;19.574;2022-12-18T15:04:05;76.20;;;51.10;;
35056;SDS011;21241;51.828;19.574;2022-12-18T15:10:01;73.50;;;46.70;;
35056;SDS011;21241;51.828;19.574;2022-12-18T15:18:01;71.20;;;41.90;;
35056;SDS011;21241;51.828;19.574;2022-12-18T15:20:51;68.50;;;47.70;;
35056;SDS011;21241;51.828;19.574;2022-12-18T15:23:32;75.60;;;55.90;;
35056;SDS011;21241;51.828;19.574;2022-12-18T15:26:05;71.30;;;51.80;;
35056;SDS011;21241;51.828;19.574;2022-12-18T15:33:45;72.60;;;54.10;;
35056;SDS011;21241;51.828;19.574;2022-12-18T15:36:28;76.30;;;54.70;;
35056;SDS011;21241;51.828;19.574;2022-12-18T15:38:57;76.00;;;55.50;;
35056;SDS011;21241;51.828;19.574;2022-12-18T15:41:34;73.80;;;53.00;;
35056;SDS011;21241;51.828;19.574;2022-12-18T15:44:03;81.10;;;63.50;;
35056;SDS011;21241;51.828;19.574;2022-12-18T15:46:50;77.40;;;51.20;;
35056;SDS011;21241;51.828;19.574;2022-12-18T15:49:17;69.50;;;50.00;;
35056;SDS011;21241;51.828;19.574;2022-12-18T15:51:45;68.30;;;48.20;;
35056;SDS011;21241;51.828;19.574;2022-12-18T15:54:16;70.00;;;46.80;;
35056;SDS011;21241;51.828;19.574;2022-12-18T15:56:44;71.80;;;48.90;;
35056;SDS011;21241;51.828;19.574;2022-12-18T15:59:30;70.80;;;48.40;;
35056;SDS011;21241;51.828;19.574;2022-12-18T16:01:58;74.60;;;49.00;;
35056;SDS011;21241;51.828;19.574;2022-12-18T16:04:27;74.20;;;52.70;;
35056;SDS011;21241;51.828;19.574;2022-12-18T16:06:54;63.00;;;43.60;;
35056;SDS011;21241;51.828;19.574;2022-12-18T16:09:41;63.90;;;43.70;;
35056;SDS011;21241;51.828;19.574;2022-12-18T16:12:14;64.10;;;44.30;;
35056;SDS011;21241;51.828;19.574;2022-12-18T16:14:43;59.90;;;44.30;;
35056;SDS011;21241;51.828;19.574;2022-12-18T16:17:12;67.70;;;45.90;;